createdAt,value
2017-12-01T00:00:10.182Z,82.09
2017-12-01T00:01:09.927Z,81.9
2017-12-01T00:02:10.201Z,81.9
2017-12-01T00:03:10.213Z,81.99
2017-12-01T00:04:09.954Z,81.99
2017-12-01T00:05:10.236Z,82.09
2017-12-01T00:06:09.977Z,82.56
2017-12-01T00:07:10.253Z,82.18
2017-12-01T00:08:10.263Z,82.37
2017-12-01T00:09:10.277Z,82.28
2017-12-01T00:10:10.021Z,82.09
2017-12-01T00:11:10.295Z,82.09
2017-12-01T00:12:10.308Z,82.18
2017-12-01T00:13:10.317Z,81.99
2017-12-01T00:14:10.329Z,82.37
2017-12-01T00:15:10.335Z,82.09
2017-12-01T00:16:10.349Z,82.18
2017-12-01T00:17:10.358Z,82.18
2017-12-01T00:18:10.367Z,82.56
2017-12-01T00:19:10.378Z,82.37
2017-12-01T00:20:10.391Z,81.99
2017-12-01T00:21:10.399Z,81.9
2017-12-01T00:22:10.144Z,81.81
2017-12-01T00:23:10.419Z,81.81
2017-12-01T00:24:10.486Z,81.81
2017-12-01T00:25:10.438Z,82.18
2017-12-01T00:26:10.450Z,82.18
2017-12-01T00:27:10.464Z,82.18
2017-12-01T00:28:10.470Z,81.81
2017-12-01T00:29:10.482Z,81.99
2017-12-01T00:30:10.495Z,81.9
2017-12-01T00:31:10.502Z,81.71
2017-12-01T00:32:10.509Z,82.18
2017-12-01T00:33:10.257Z,81.99
2017-12-01T00:34:10.530Z,81.99
2017-12-01T00:35:10.273Z,81.9
2017-12-01T00:36:10.553Z,82.09
2017-12-01T00:37:10.296Z,81.9
2017-12-01T00:38:10.576Z,81.81
2017-12-01T00:39:10.586Z,81.81
2017-12-01T00:40:10.599Z,81.81
2017-12-01T00:41:10.604Z,81.99
2017-12-01T00:42:10.614Z,81.9
2017-12-01T00:43:10.364Z,81.99
2017-12-01T00:44:10.634Z,82.09
2017-12-01T00:45:10.648Z,82.18
2017-12-01T00:46:10.653Z,82.28
2017-12-01T00:47:10.669Z,82.37
2017-12-01T00:48:10.674Z,82.56
2017-12-01T00:49:10.421Z,82.37
2017-12-01T00:50:10.695Z,81.81
2017-12-01T00:51:10.709Z,81.99
2017-12-01T00:52:10.714Z,82.18
2017-12-01T00:53:10.727Z,82.05
2017-12-01T00:54:10.760Z,81.99
2017-12-01T00:55:10.759Z,81.81
2017-12-01T00:56:10.493Z,81.81
2017-12-01T00:57:10.768Z,81.99
2017-12-01T00:58:10.777Z,81.62
2017-12-01T00:59:10.784Z,81.81
2017-12-01T01:00:10.529Z,81.99
2017-12-01T01:01:10.808Z,82.09
2017-12-01T01:02:10.819Z,81.76
2017-12-01T01:03:10.829Z,81.99
2017-12-01T01:04:10.845Z,82.14
2017-12-01T01:05:10.853Z,81.99
2017-12-01T01:06:10.592Z,81.95
2017-12-01T01:07:10.871Z,81.86
2017-12-01T01:08:10.879Z,81.57
2017-12-01T01:09:10.891Z,81.86
2017-12-01T01:10:10.897Z,81.57
2017-12-01T01:11:10.907Z,81.86
2017-12-01T01:12:10.919Z,82.05
2017-12-01T01:13:10.930Z,82.05
2017-12-01T01:14:10.936Z,81.95
2017-12-01T01:15:10.952Z,82.05
2017-12-01T01:16:10.962Z,81.76
2017-12-01T01:17:10.978Z,81.95
2017-12-01T01:18:10.979Z,81.95
2017-12-01T01:19:10.989Z,81.86
2017-12-01T01:20:10.999Z,81.86
2017-12-01T01:21:11.008Z,81.86
2017-12-01T01:22:11.018Z,82.14
2017-12-01T01:23:10.762Z,81.95
2017-12-01T01:24:11.038Z,82.05
2017-12-01T01:25:11.048Z,81.95
2017-12-01T01:26:11.058Z,82.05
2017-12-01T01:27:11.074Z,81.95
2017-12-01T01:28:11.078Z,81.95
2017-12-01T01:29:10.825Z,81.95
2017-12-01T01:30:11.103Z,82.14
2017-12-01T01:31:11.110Z,82.05
2017-12-01T01:32:11.123Z,81.67
2017-12-01T01:33:11.128Z,81.86
2017-12-01T01:34:11.137Z,81.76
2017-12-01T01:35:11.149Z,82.14
2017-12-01T01:36:11.161Z,81.95
2017-12-01T01:37:11.169Z,82.05
2017-12-01T01:38:11.180Z,81.95
2017-12-01T01:39:11.189Z,81.95
2017-12-01T01:40:11.202Z,82.05
2017-12-01T01:41:11.213Z,81.86
2017-12-01T01:42:11.215Z,82.05
2017-12-01T01:43:10.980Z,82.05
2017-12-01T01:44:11.241Z,82.05
2017-12-01T01:45:11.256Z,81.95
2017-12-01T01:46:11.260Z,81.76
2017-12-01T01:47:11.263Z,81.76
2017-12-01T01:48:11.275Z,81.86
2017-12-01T01:49:11.284Z,81.95
2017-12-01T01:50:11.298Z,81.86
2017-12-01T01:51:11.304Z,81.86
2017-12-01T01:52:11.318Z,81.76
2017-12-01T01:53:11.060Z,81.95
2017-12-01T01:54:11.339Z,81.76
2017-12-01T01:55:11.079Z,82.05
2017-12-01T01:56:11.358Z,81.95
2017-12-01T01:57:11.370Z,81.95
2017-12-01T01:58:11.375Z,81.76
2017-12-01T01:59:11.390Z,81.86
2017-12-01T02:00:11.403Z,82.05
2017-12-01T02:01:11.405Z,81.76
2017-12-01T02:02:11.418Z,81.86
2017-12-01T02:03:11.422Z,81.86
2017-12-01T02:04:11.433Z,82.14
2017-12-01T02:05:11.443Z,82.14
2017-12-01T02:06:11.461Z,81.95
2017-12-01T02:07:11.198Z,81.86
2017-12-01T02:08:11.487Z,81.95
2017-12-01T02:09:11.490Z,81.95
2017-12-01T02:10:11.228Z,81.86
2017-12-01T02:11:11.508Z,81.95
2017-12-01T02:12:11.511Z,81.86
2017-12-01T02:13:11.532Z,81.95
2017-12-01T02:14:11.534Z,81.95
2017-12-01T02:15:11.545Z,81.86
2017-12-01T02:16:11.552Z,82.05
2017-12-01T02:17:11.563Z,82.05
2017-12-01T02:18:11.304Z,81.95
2017-12-01T02:19:11.585Z,81.95
2017-12-01T02:20:11.593Z,82.05
2017-12-01T02:21:11.599Z,82.24
2017-12-01T02:22:11.627Z,81.38
2017-12-01T02:23:11.620Z,81.29
2017-12-01T02:24:11.632Z,81.29
2017-12-01T02:25:11.649Z,81.29
2017-12-01T02:26:11.657Z,82.14
2017-12-01T02:27:11.668Z,81.95
2017-12-01T02:28:11.667Z,82.14
2017-12-01T02:29:11.680Z,82.24
2017-12-01T02:30:11.692Z,82.24
2017-12-01T02:31:11.705Z,82.14
2017-12-01T02:32:11.712Z,81.38
2017-12-01T02:33:11.716Z,82.24
2017-12-01T02:34:11.724Z,81.29
2017-12-01T02:35:11.740Z,81.38
2017-12-01T02:36:11.749Z,81.48
2017-12-01T02:37:11.763Z,81.48
2017-12-01T02:38:11.772Z,81.38
2017-12-01T02:39:11.777Z,82.24
2017-12-01T02:40:11.816Z,82.05
2017-12-01T02:41:11.803Z,82.24
2017-12-01T02:42:11.808Z,82.14
2017-12-01T02:43:11.549Z,82.14
2017-12-01T02:44:11.829Z,82.05
2017-12-01T02:45:11.832Z,81.76
2017-12-01T02:46:11.859Z,82.05
2017-12-01T02:47:11.851Z,82.05
2017-12-01T02:48:11.597Z,81.48
2017-12-01T02:49:11.870Z,81.48
2017-12-01T02:50:11.618Z,81.48
2017-12-01T02:51:11.899Z,81.29
2017-12-01T02:52:11.910Z,81.57
2017-12-01T02:53:11.914Z,81.57
2017-12-01T02:54:11.918Z,81.57
2017-12-01T02:55:11.929Z,81.48
2017-12-01T02:56:11.674Z,81.29
2017-12-01T02:57:11.974Z,81.57
2017-12-01T02:58:11.958Z,81.2
2017-12-01T02:59:11.970Z,81.57
2017-12-01T03:00:11.981Z,81.57
2017-12-01T03:01:11.989Z,81.57
2017-12-01T03:02:11.996Z,81.29
2017-12-01T03:03:12.006Z,81.29
2017-12-01T03:04:11.753Z,81.57
2017-12-01T03:05:12.028Z,81.48
2017-12-01T03:06:12.035Z,81.48
2017-12-01T03:07:12.047Z,81.57
2017-12-01T03:08:12.058Z,81.48
2017-12-01T03:09:12.067Z,81.57
2017-12-01T03:10:12.078Z,81.67
2017-12-01T03:11:11.821Z,81.48
2017-12-01T03:12:11.833Z,81.53
2017-12-01T03:13:11.839Z,81.57
2017-12-01T03:14:12.111Z,81.57
2017-12-01T03:15:12.168Z,81.25
2017-12-01T03:16:12.129Z,81.57
2017-12-01T03:17:12.144Z,81.44
2017-12-01T03:18:12.193Z,81.57
2017-12-01T03:19:11.895Z,81.53
2017-12-01T03:20:12.173Z,81.29
2017-12-01T03:21:12.182Z,81.48
2017-12-01T03:22:11.924Z,81.38
2017-12-01T03:23:12.198Z,81.38
2017-12-01T03:24:12.204Z,81.38
2017-12-01T03:25:12.236Z,81.25
2017-12-01T03:26:12.229Z,81.25
2017-12-01T03:27:12.238Z,81.44
2017-12-01T03:28:12.247Z,81.44
2017-12-01T03:29:12.255Z,81.44
2017-12-01T03:30:12.001Z,81.53
2017-12-01T03:31:12.279Z,81.44
2017-12-01T03:32:12.019Z,81.53
2017-12-01T03:33:12.031Z,81.25
2017-12-01T03:34:12.038Z,81.25
2017-12-01T03:35:12.048Z,81.25
2017-12-01T03:36:12.065Z,81.53
2017-12-01T03:37:12.337Z,81.15
2017-12-01T03:38:12.343Z,81.25
2017-12-01T03:39:12.355Z,81.34
2017-12-01T03:40:12.095Z,81.34
2017-12-01T03:41:12.369Z,81.44
2017-12-01T03:42:12.113Z,81.44
2017-12-01T03:43:12.119Z,81.44
2017-12-01T03:44:12.400Z,81.53
2017-12-01T03:45:12.409Z,81.53
2017-12-01T03:46:12.417Z,81.44
2017-12-01T03:47:12.158Z,81.63
2017-12-01T03:48:12.438Z,81.25
2017-12-01T03:49:12.441Z,81.34
2017-12-01T03:50:12.452Z,81.44
2017-12-01T03:51:12.461Z,81.34
2017-12-01T03:52:12.477Z,81.44
2017-12-01T03:53:12.478Z,81.34
2017-12-01T03:54:12.227Z,81.15
2017-12-01T03:55:12.499Z,81.25
2017-12-01T03:56:12.510Z,81.15
2017-12-01T03:57:12.518Z,81.34
2017-12-01T03:58:12.530Z,81.44
2017-12-01T03:59:12.539Z,81.44
2017-12-01T04:00:12.543Z,81.34
2017-12-01T04:01:12.553Z,81.25
2017-12-01T04:02:12.565Z,81.34
2017-12-01T04:03:12.577Z,81.53
2017-12-01T04:04:12.321Z,81.44
2017-12-01T04:05:12.597Z,81.44
2017-12-01T04:06:12.336Z,81.53
2017-12-01T04:07:12.613Z,81.44
2017-12-01T04:08:12.355Z,81.53
2017-12-01T04:09:12.363Z,81.53
2017-12-01T04:10:12.646Z,81.34
2017-12-01T04:11:12.384Z,81.44
2017-12-01T04:12:12.660Z,81.34
2017-12-01T04:13:12.672Z,81.44
2017-12-01T04:14:12.681Z,81.15
2017-12-01T04:15:12.693Z,81.44
2017-12-01T04:16:12.702Z,81.34
2017-12-01T04:17:12.704Z,81.44
2017-12-01T04:18:12.712Z,81.44
2017-12-01T04:19:12.723Z,81.25
2017-12-01T04:20:12.729Z,81.44
2017-12-01T04:21:12.741Z,81.34
2017-12-01T04:22:12.750Z,81.25
2017-12-01T04:23:12.764Z,81.53
2017-12-01T04:24:12.772Z,81.53
2017-12-01T04:25:12.802Z,81.34
2017-12-01T04:26:12.784Z,81.44
2017-12-01T04:27:12.799Z,81.15
2017-12-01T04:28:12.806Z,81.53
2017-12-01T04:29:12.553Z,81.34
2017-12-01T04:30:12.875Z,81.53
2017-12-01T04:31:12.836Z,81.44
2017-12-01T04:32:12.849Z,81.63
2017-12-01T04:33:12.859Z,81.25
2017-12-01T04:34:12.862Z,81.53
2017-12-01T04:35:12.870Z,81.44
2017-12-01T04:36:12.617Z,81.15
2017-12-01T04:37:12.893Z,81.15
2017-12-01T04:38:12.903Z,81.53
2017-12-01T04:39:12.906Z,81.44
2017-12-01T04:40:12.652Z,81.53
2017-12-01T04:41:12.926Z,81.53
2017-12-01T04:42:12.937Z,81.44
2017-12-01T04:43:12.944Z,81.53
2017-12-01T04:44:12.954Z,81.25
2017-12-01T04:45:12.698Z,81.53
2017-12-01T04:46:12.712Z,81.44
2017-12-01T04:47:12.978Z,81.53
2017-12-01T04:48:12.723Z,81.53
2017-12-01T04:49:13.004Z,81.44
2017-12-01T04:50:12.742Z,81.44
2017-12-01T04:51:12.753Z,81.53
2017-12-01T04:52:13.028Z,81.15
2017-12-01T04:53:12.768Z,81.53
2017-12-01T04:54:12.782Z,81.44
2017-12-01T04:55:12.793Z,81.15
2017-12-01T04:56:13.071Z,81.44
2017-12-01T04:57:13.078Z,81.34
2017-12-01T04:58:13.086Z,81.44
2017-12-01T04:59:13.089Z,81.44
2017-12-01T05:00:13.097Z,81.44
2017-12-01T05:01:13.113Z,81.53
2017-12-01T05:02:12.849Z,81.34
2017-12-01T05:03:13.128Z,81.53
2017-12-01T05:04:13.134Z,81.63
2017-12-01T05:05:13.150Z,81.63
2017-12-01T05:06:13.153Z,81.34
2017-12-01T05:07:13.173Z,81.44
2017-12-01T05:08:13.178Z,81.44
2017-12-01T05:09:13.180Z,81.63
2017-12-01T05:10:13.188Z,81.63
2017-12-01T05:11:13.201Z,81.44
2017-12-01T05:12:12.986Z,81.44
2017-12-01T05:13:13.220Z,81.53
2017-12-01T05:14:13.234Z,81.44
2017-12-01T05:15:13.233Z,81.72
2017-12-01T05:16:13.250Z,81.53
2017-12-01T05:17:13.251Z,81.53
2017-12-01T05:18:13.260Z,81.44
2017-12-01T05:19:13.270Z,81.44
2017-12-01T05:20:13.284Z,81.53
2017-12-01T05:21:13.293Z,81.44
2017-12-01T05:22:13.305Z,81.44
2017-12-01T05:23:13.308Z,81.44
2017-12-01T05:24:13.342Z,81.25
2017-12-01T05:25:13.324Z,81.63
2017-12-01T05:26:13.339Z,81.44
2017-12-01T05:27:13.081Z,81.44
2017-12-01T05:28:13.352Z,81.53
2017-12-01T05:29:13.369Z,81.63
2017-12-01T05:30:13.378Z,81.53
2017-12-01T05:31:13.389Z,81.53
2017-12-01T05:32:13.127Z,81.34
2017-12-01T05:33:13.396Z,81.34
2017-12-01T05:34:13.407Z,81.25
2017-12-01T05:35:13.419Z,81.44
2017-12-01T05:36:13.438Z,81.53
2017-12-01T05:37:13.435Z,81.44
2017-12-01T05:38:13.441Z,81.44
2017-12-01T05:39:13.448Z,81.34
2017-12-01T05:40:13.458Z,81.92
2017-12-01T05:41:13.469Z,81.72
2017-12-01T05:42:13.240Z,81.92
2017-12-01T05:43:13.486Z,81.34
2017-12-01T05:44:13.497Z,81.53
2017-12-01T05:45:13.248Z,81.72
2017-12-01T05:46:13.249Z,81.63
2017-12-01T05:47:13.259Z,81.72
2017-12-01T05:48:13.527Z,81.63
2017-12-01T05:49:13.274Z,81.53
2017-12-01T05:50:13.287Z,81.34
2017-12-01T05:51:13.296Z,81.44
2017-12-01T05:52:13.571Z,81.53
2017-12-01T05:53:13.578Z,81.53
2017-12-01T05:54:13.318Z,81.63
2017-12-01T05:55:13.600Z,81.53
2017-12-01T05:56:13.339Z,81.53
2017-12-01T05:57:13.619Z,81.44
2017-12-01T05:58:13.630Z,82.2
2017-12-01T05:59:13.627Z,81.34
2017-12-01T06:00:13.642Z,81.82
2017-12-01T06:01:13.380Z,82.1
2017-12-01T06:02:13.657Z,82.1
2017-12-01T06:03:13.671Z,82.1
2017-12-01T06:04:13.411Z,81.92
2017-12-01T06:05:13.685Z,82.01
2017-12-01T06:06:13.695Z,82.01
2017-12-01T06:07:13.699Z,81.92
2017-12-01T06:08:13.712Z,81.92
2017-12-01T06:09:13.727Z,81.63
2017-12-01T06:10:13.730Z,81.72
2017-12-01T06:11:13.756Z,82.01
2017-12-01T06:12:13.742Z,81.92
2017-12-01T06:13:13.754Z,81.72
2017-12-01T06:14:13.769Z,82.1
2017-12-01T06:15:13.771Z,82.1
2017-12-01T06:16:13.780Z,81.72
2017-12-01T06:17:13.793Z,82.01
2017-12-01T06:18:13.802Z,81.82
2017-12-01T06:19:13.808Z,81.92
2017-12-01T06:20:13.555Z,81.92
2017-12-01T06:21:13.825Z,81.92
2017-12-01T06:22:13.831Z,81.92
2017-12-01T06:23:13.844Z,81.92
2017-12-01T06:24:13.851Z,81.92
2017-12-01T06:25:13.865Z,82.1
2017-12-01T06:26:13.867Z,81.53
2017-12-01T06:27:13.613Z,81.72
2017-12-01T06:28:13.886Z,81.72
2017-12-01T06:29:13.895Z,82.1
2017-12-01T06:30:13.909Z,81.92
2017-12-01T06:31:13.911Z,81.72
2017-12-01T06:32:13.940Z,82.01
2017-12-01T06:33:13.670Z,81.92
2017-12-01T06:34:13.942Z,81.82
2017-12-01T06:35:13.946Z,82.1
2017-12-01T06:36:13.961Z,81.92
2017-12-01T06:37:13.699Z,81.82
2017-12-01T06:38:13.982Z,81.92
2017-12-01T06:39:13.989Z,81.92
2017-12-01T06:40:13.995Z,81.92
2017-12-01T06:41:14.007Z,81.92
2017-12-01T06:42:14.011Z,82.01
2017-12-01T06:43:13.758Z,81.92
2017-12-01T06:44:14.032Z,81.82
2017-12-01T06:45:13.773Z,81.92
2017-12-01T06:46:14.052Z,81.63
2017-12-01T06:47:14.061Z,81.92
2017-12-01T06:48:14.065Z,81.92
2017-12-01T06:49:13.808Z,81.72
2017-12-01T06:50:14.148Z,81.72
2017-12-01T06:51:14.093Z,81.82
2017-12-01T06:52:14.097Z,81.72
2017-12-01T06:53:14.122Z,82.1
2017-12-01T06:54:14.119Z,82.1
2017-12-01T06:55:13.865Z,82.1
2017-12-01T06:56:13.866Z,82.2
2017-12-01T06:57:14.144Z,82.1
2017-12-01T06:58:14.152Z,82.01
2017-12-01T06:59:14.161Z,82.39
2017-12-01T07:00:14.170Z,81.82
2017-12-01T07:01:13.911Z,82.39
2017-12-01T07:02:14.192Z,81.92
2017-12-01T07:03:13.942Z,81.72
2017-12-01T07:04:13.940Z,81.92
2017-12-01T07:05:14.219Z,82.01
2017-12-01T07:06:14.224Z,82.2
2017-12-01T07:07:13.964Z,82.01
2017-12-01T07:08:14.245Z,82.1
2017-12-01T07:09:13.983Z,82.29
2017-12-01T07:10:14.262Z,82.01
2017-12-01T07:11:14.276Z,82.48
2017-12-01T07:12:14.014Z,82.48
2017-12-01T07:13:14.320Z,82.29
2017-12-01T07:14:14.030Z,82.29
2017-12-01T07:15:14.033Z,82.01
2017-12-01T07:16:14.308Z,82.67
2017-12-01T07:17:14.320Z,82.86
2017-12-01T07:18:14.337Z,82.76
2017-12-01T07:19:14.070Z,82.57
2017-12-01T07:20:14.086Z,82.39
2017-12-01T07:21:14.362Z,82.57
2017-12-01T07:22:14.099Z,82.57
2017-12-01T07:23:14.108Z,82.67
2017-12-01T07:24:14.387Z,82.67
2017-12-01T07:25:14.397Z,82.29
2017-12-01T07:26:14.402Z,82.57
2017-12-01T07:27:14.429Z,82.57
2017-12-01T07:28:14.153Z,82.76
2017-12-01T07:29:14.428Z,82.76
2017-12-01T07:30:14.434Z,82.57
2017-12-01T07:31:14.451Z,82.57
2017-12-01T07:32:14.461Z,82.57
2017-12-01T07:33:14.463Z,82.76
2017-12-01T07:34:14.480Z,82.67
2017-12-01T07:35:14.478Z,82.76
2017-12-01T07:36:14.489Z,82.76
2017-12-01T07:37:14.501Z,82.71
2017-12-01T07:38:14.240Z,82.95
2017-12-01T07:39:14.522Z,82.81
2017-12-01T07:40:14.531Z,82.9
2017-12-01T07:41:14.536Z,82.67
2017-12-01T07:42:14.544Z,82.67
2017-12-01T07:43:14.558Z,82.76
2017-12-01T07:44:14.565Z,83.09
2017-12-01T07:45:14.573Z,82.9
2017-12-01T07:46:14.645Z,82.81
2017-12-01T07:47:14.589Z,82.9
2017-12-01T07:48:14.600Z,82.9
2017-12-01T07:49:14.658Z,82.9
2017-12-01T07:50:14.616Z,83.09
2017-12-01T07:51:14.629Z,83.18
2017-12-01T07:52:14.648Z,83.18
2017-12-01T07:53:14.646Z,83.09
2017-12-01T07:54:14.661Z,83.18
2017-12-01T07:55:14.665Z,82.71
2017-12-01T07:56:14.677Z,82.62
2017-12-01T07:57:14.412Z,83.09
2017-12-01T07:58:14.690Z,83.09
2017-12-01T07:59:14.702Z,82.81
2017-12-01T08:00:14.710Z,82.81
2017-12-01T08:01:14.451Z,82.71
2017-12-01T08:02:14.752Z,82.43
2017-12-01T08:03:14.738Z,82.52
2017-12-01T08:04:14.761Z,82.33
2017-12-01T08:05:14.756Z,82.52
2017-12-01T08:06:14.498Z,82.71
2017-12-01T08:07:14.812Z,82.71
2017-12-01T08:08:14.786Z,82.9
2017-12-01T08:09:14.811Z,82.71
2017-12-01T08:10:14.796Z,82.9
2017-12-01T08:11:14.808Z,83
2017-12-01T08:12:14.813Z,82.9
2017-12-01T08:13:14.843Z,82.81
2017-12-01T08:14:14.837Z,82.9
2017-12-01T08:15:14.848Z,82.81
2017-12-01T08:16:14.585Z,82.9
2017-12-01T08:17:14.868Z,83
2017-12-01T08:18:14.879Z,82.81
2017-12-01T08:19:14.884Z,82.71
2017-12-01T08:20:14.624Z,82.71
2017-12-01T08:21:14.902Z,82.81
2017-12-01T08:22:14.917Z,82.9
2017-12-01T08:23:14.650Z,82.9
2017-12-01T08:24:14.926Z,83
2017-12-01T08:25:14.943Z,82.81
2017-12-01T08:26:14.953Z,82.9
2017-12-01T08:27:14.960Z,82.9
2017-12-01T08:28:14.700Z,82.71
2017-12-01T08:29:14.977Z,82.71
2017-12-01T08:30:14.719Z,83
2017-12-01T08:31:14.995Z,82.81
2017-12-01T08:32:15.002Z,82.81
2017-12-01T08:33:15.020Z,82.9
2017-12-01T08:34:14.754Z,83
2017-12-01T08:35:15.029Z,82.81
2017-12-01T08:36:15.049Z,82.9
2017-12-01T08:37:15.062Z,83
2017-12-01T08:38:14.796Z,83
2017-12-01T08:39:15.068Z,82.81
2017-12-01T08:40:15.082Z,82.81
2017-12-01T08:41:15.085Z,82.9
2017-12-01T08:42:14.843Z,83
2017-12-01T08:43:15.116Z,83
2017-12-01T08:44:15.131Z,83
2017-12-01T08:45:15.127Z,83.18
2017-12-01T08:46:15.139Z,83.18
2017-12-01T08:47:14.878Z,82.9
2017-12-01T08:48:15.155Z,82.71
2017-12-01T08:49:14.897Z,83
2017-12-01T08:50:15.176Z,83.37
2017-12-01T08:51:14.919Z,83
2017-12-01T08:52:14.928Z,83
2017-12-01T08:53:14.935Z,83.09
2017-12-01T08:54:15.208Z,82.9
2017-12-01T08:55:15.221Z,83.09
2017-12-01T08:56:15.240Z,83
2017-12-01T08:57:15.238Z,83
2017-12-01T08:58:15.251Z,82.94
2017-12-01T08:59:15.263Z,83.04
2017-12-01T09:00:15.004Z,83.42
2017-12-01T09:01:15.286Z,83.61
2017-12-01T09:02:15.289Z,83.04
2017-12-01T09:03:15.292Z,83.23
2017-12-01T09:04:15.304Z,83.42
2017-12-01T09:05:15.049Z,83.51
2017-12-01T09:06:15.327Z,83.04
2017-12-01T09:07:15.335Z,83.04
2017-12-01T09:08:15.082Z,83.13
2017-12-01T09:09:15.357Z,83.04
2017-12-01T09:10:15.099Z,82.94
2017-12-01T09:11:15.379Z,82.85
2017-12-01T09:12:15.387Z,82.94
2017-12-01T09:13:15.397Z,83.04
2017-12-01T09:14:15.401Z,83.42
2017-12-01T09:15:15.414Z,83.8
2017-12-01T09:16:15.169Z,83.7
2017-12-01T09:17:15.168Z,83.8
2017-12-01T09:18:15.438Z,83.32
2017-12-01T09:19:15.450Z,83.04
2017-12-01T09:20:15.486Z,83.61
2017-12-01T09:21:15.473Z,83.61
2017-12-01T09:22:15.481Z,83.7
2017-12-01T09:23:15.488Z,83.42
2017-12-01T09:24:15.241Z,83.32
2017-12-01T09:25:15.505Z,83.32
2017-12-01T09:26:15.522Z,83.7
2017-12-01T09:27:15.531Z,83.61
2017-12-01T09:28:15.545Z,83.51
2017-12-01T09:29:15.289Z,83.23
2017-12-01T09:30:15.618Z,83.13
2017-12-01T09:31:15.572Z,83.32
2017-12-01T09:32:15.583Z,83.32
2017-12-01T09:33:15.588Z,83.32
2017-12-01T09:34:15.599Z,83.23
2017-12-01T09:35:15.613Z,83.23
2017-12-01T09:36:15.354Z,83.51
2017-12-01T09:37:15.627Z,82.94
2017-12-01T09:38:15.375Z,83.23
2017-12-01T09:39:15.650Z,83.42
2017-12-01T09:40:15.660Z,83.23
2017-12-01T09:41:15.420Z,83.42
2017-12-01T09:42:15.679Z,83.42
2017-12-01T09:43:15.691Z,83.42
2017-12-01T09:44:15.695Z,83.32
2017-12-01T09:45:15.708Z,83.32
2017-12-01T09:46:15.719Z,83.51
2017-12-01T09:47:15.721Z,83.23
2017-12-01T09:48:15.733Z,83.32
2017-12-01T09:49:15.753Z,83.23
2017-12-01T09:50:15.756Z,83.23
2017-12-01T09:51:15.777Z,83.32
2017-12-01T09:52:15.775Z,83.51
2017-12-01T09:53:15.784Z,83.42
2017-12-01T09:54:15.529Z,83.13
2017-12-01T09:55:15.809Z,83.51
2017-12-01T09:56:15.852Z,83.51
2017-12-01T09:57:15.828Z,83.13
2017-12-01T09:58:15.837Z,83.13
2017-12-01T09:59:15.847Z,83.42
2017-12-01T10:00:15.859Z,83.42
2017-12-01T10:01:15.870Z,83.36
2017-12-01T10:02:15.612Z,83.42
2017-12-01T10:03:15.910Z,83.46
2017-12-01T10:04:15.909Z,83.23
2017-12-01T10:05:15.907Z,83.23
2017-12-01T10:06:15.655Z,83.17
2017-12-01T10:07:15.927Z,83.61
2017-12-01T10:08:15.939Z,83.55
2017-12-01T10:09:15.685Z,83.42
2017-12-01T10:10:15.692Z,83.74
2017-12-01T10:11:15.739Z,83.55
2017-12-01T10:12:15.972Z,83.36
2017-12-01T10:13:15.728Z,83.46
2017-12-01T10:14:16.004Z,83.27
2017-12-01T10:15:16.005Z,83.17
2017-12-01T10:16:16.022Z,83.08
2017-12-01T10:17:16.024Z,83.17
2017-12-01T10:18:15.772Z,83.08
2017-12-01T10:19:16.046Z,83.08
2017-12-01T10:20:15.804Z,83.08
2017-12-01T10:21:16.065Z,83.08
2017-12-01T10:22:16.078Z,83.27
2017-12-01T10:23:15.826Z,83.46
2017-12-01T10:24:16.108Z,83.27
2017-12-01T10:25:16.110Z,83.17
2017-12-01T10:26:16.116Z,83.36
2017-12-01T10:27:16.129Z,83.46
2017-12-01T10:28:16.141Z,83.27
2017-12-01T10:29:16.147Z,83.36
2017-12-01T10:30:16.159Z,83.08
2017-12-01T10:31:16.167Z,83.27
2017-12-01T10:32:15.918Z,83.46
2017-12-01T10:33:16.190Z,83.08
2017-12-01T10:34:16.198Z,82.98
2017-12-01T10:35:16.208Z,83.27
2017-12-01T10:36:16.367Z,83.36
2017-12-01T10:37:16.228Z,83.36
2017-12-01T10:38:16.240Z,83.08
2017-12-01T10:39:16.251Z,82.98
2017-12-01T10:40:16.260Z,82.89
2017-12-01T10:41:16.317Z,82.89
2017-12-01T10:42:16.283Z,82.89
2017-12-01T10:43:16.289Z,82.42
2017-12-01T10:44:16.299Z,82.7
2017-12-01T10:45:16.316Z,82.89
2017-12-01T10:46:16.318Z,82.7
2017-12-01T10:47:16.331Z,82.89
2017-12-01T10:48:16.346Z,82.89
2017-12-01T10:49:16.083Z,82.89
2017-12-01T10:50:16.368Z,82.7
2017-12-01T10:51:16.379Z,82.98
2017-12-01T10:52:16.390Z,82.51
2017-12-01T10:53:16.396Z,82.89
2017-12-01T10:54:16.404Z,82.89
2017-12-01T10:55:16.421Z,82.89
2017-12-01T10:56:16.425Z,82.89
2017-12-01T10:57:16.173Z,82.89
2017-12-01T10:58:16.447Z,82.42
2017-12-01T10:59:16.458Z,82.51
2017-12-01T11:00:16.207Z,82.89
2017-12-01T11:01:16.488Z,82.89
2017-12-01T11:02:16.488Z,82.51
2017-12-01T11:03:16.496Z,82.89
2017-12-01T11:04:16.512Z,82.89
2017-12-01T11:05:16.521Z,82.6
2017-12-01T11:06:16.530Z,82.6
2017-12-01T11:07:16.549Z,82.51
2017-12-01T11:08:16.552Z,82.74
2017-12-01T11:09:16.564Z,82.65
2017-12-01T11:10:16.308Z,82.7
2017-12-01T11:11:16.586Z,82.74
2017-12-01T11:12:16.598Z,82.74
2017-12-01T11:13:16.612Z,82.84
2017-12-01T11:14:16.615Z,82.27
2017-12-01T11:15:16.628Z,82.27
2017-12-01T11:16:16.692Z,82.36
2017-12-01T11:17:16.650Z,82.17
2017-12-01T11:18:16.392Z,81.88
2017-12-01T11:19:16.670Z,82.08
2017-12-01T11:20:16.435Z,81.98
2017-12-01T11:21:16.689Z,81.98
2017-12-01T11:22:16.701Z,82.17
2017-12-01T11:23:16.799Z,81.88
2017-12-01T11:24:16.722Z,82.08
2017-12-01T11:25:16.737Z,81.88
2017-12-01T11:26:16.744Z,82.27
2017-12-01T11:27:16.486Z,82.08
2017-12-01T11:28:16.499Z,82.17
2017-12-01T11:29:16.510Z,82.27
2017-12-01T11:30:16.781Z,82.55
2017-12-01T11:31:16.796Z,82.08
2017-12-01T11:32:16.811Z,82.08
2017-12-01T11:33:16.821Z,82.27
2017-12-01T11:34:16.827Z,82.08
2017-12-01T11:35:16.839Z,82.36
2017-12-01T11:36:16.902Z,82.08
2017-12-01T11:37:16.860Z,82.46
2017-12-01T11:38:16.607Z,82.08
2017-12-01T11:39:16.880Z,82.46
2017-12-01T11:40:16.892Z,81.98
2017-12-01T11:41:16.635Z,81.88
2017-12-01T11:42:16.653Z,82.17
2017-12-01T11:43:16.941Z,82.08
2017-12-01T11:44:16.678Z,81.98
2017-12-01T11:45:16.945Z,82.08
2017-12-01T11:46:16.957Z,81.98
2017-12-01T11:47:16.967Z,82.84
2017-12-01T11:48:16.713Z,81.88
2017-12-01T11:49:16.723Z,81.88
2017-12-01T11:50:17.013Z,82.08
2017-12-01T11:51:17.019Z,81.98
2017-12-01T11:52:17.023Z,82.17
2017-12-01T11:53:17.087Z,82.17
2017-12-01T11:54:16.782Z,81.98
2017-12-01T11:55:17.056Z,82.17
2017-12-01T11:56:16.802Z,82.08
2017-12-01T11:57:16.813Z,82.27
2017-12-01T11:58:16.824Z,82.08
2017-12-01T11:59:16.838Z,81.88
2017-12-01T12:00:17.131Z,82.17
2017-12-01T12:01:16.855Z,82.27
2017-12-01T12:02:16.867Z,82.46
2017-12-01T12:03:16.921Z,82.27
2017-12-01T12:04:17.188Z,82.17
2017-12-01T12:05:17.170Z,81.98
2017-12-01T12:06:17.175Z,82.08
2017-12-01T12:07:17.185Z,81.88
2017-12-01T12:08:17.203Z,82.08
2017-12-01T12:09:17.212Z,82.08
2017-12-01T12:10:17.221Z,82.08
2017-12-01T12:11:17.278Z,81.98
2017-12-01T12:12:16.977Z,81.98
2017-12-01T12:13:17.268Z,81.88
2017-12-01T12:14:17.265Z,82.08
2017-12-01T12:15:17.013Z,81.88
2017-12-01T12:16:17.288Z,82.08
2017-12-01T12:17:17.296Z,82.08
2017-12-01T12:18:17.314Z,82.08
2017-12-01T12:19:17.053Z,81.98
2017-12-01T12:20:17.335Z,81.98
2017-12-01T12:21:17.340Z,82.08
2017-12-01T12:22:17.351Z,82.46
2017-12-01T12:23:17.365Z,82.27
2017-12-01T12:24:17.509Z,82.93
2017-12-01T12:25:17.384Z,81.88
2017-12-01T12:26:17.399Z,81.98
2017-12-01T12:27:17.412Z,82.08
2017-12-01T12:28:17.151Z,82.17
2017-12-01T12:29:17.432Z,82.36
2017-12-01T12:30:17.190Z,82.55
2017-12-01T12:31:17.188Z,82.65
2017-12-01T12:32:17.471Z,82.46
2017-12-01T12:33:17.481Z,82.17
2017-12-01T12:34:17.488Z,82.08
2017-12-01T12:35:17.498Z,82.74
2017-12-01T12:36:17.515Z,82.03
2017-12-01T12:37:17.519Z,82.27
2017-12-01T12:38:17.533Z,82.12
2017-12-01T12:39:17.546Z,81.88
2017-12-01T12:40:17.556Z,82.12
2017-12-01T12:41:17.563Z,82.03
2017-12-01T12:42:17.579Z,82.21
2017-12-01T12:43:17.594Z,82.59
2017-12-01T12:44:17.331Z,82.69
2017-12-01T12:45:17.612Z,82.88
2017-12-01T12:46:17.356Z,82.88
2017-12-01T12:47:17.683Z,82.5
2017-12-01T12:48:17.643Z,82.5
2017-12-01T12:49:17.653Z,82.59
2017-12-01T12:50:17.663Z,82.88
2017-12-01T12:51:17.679Z,82.97
2017-12-01T12:52:17.686Z,82.78
2017-12-01T12:53:17.753Z,82.97
2017-12-01T12:54:17.710Z,82.78
2017-12-01T12:55:17.728Z,82.88